Time;durP1;ratioP1;P1;durP2;ratioP2;P2;SDS_P1;SDS_P2;PMS_P1;PMS_P2;Temp;Humidity;BMP_temperature;BMP_pressure;BME280_temperature;BME280_humidity;BME280_pressure;Samples;Min_cycle;Max_cycle;Signal;HPM_P1;HPM_P2
2021/12/08 00:02:12;;;;;;;36.70;15.70;;;-2.00;99.90;;;;;;5093212;28;20173;-55
2021/12/08 00:04:38;;;;;;;31.43;11.70;;;-2.00;99.90;;;;;;5093745;28;20266;-54
2021/12/08 00:07:06;;;;;;;25.67;10.40;;;-2.00;99.90;;;;;;5093392;28;20222;-55
2021/12/08 00:10:49;;;;;;;32.17;12.57;;;-2.10;99.90;;;;;;5094007;28;20675;-54
2021/12/08 00:15:02;;;;;;;25.97;11.57;;;-2.10;99.90;;;;;;5073183;28;20238;-53
2021/12/08 00:17:28;;;;;;;28.67;11.93;;;-2.10;99.90;;;;;;5072903;28;20203;-52
2021/12/08 00:19:54;;;;;;;38.83;14.60;;;-2.10;99.90;;;;;;5073261;28;20209;-52
2021/12/08 00:22:20;;;;;;;27.20;11.17;;;-2.10;99.90;;;;;;5070202;28;20195;-54
2021/12/08 00:24:46;;;;;;;26.67;10.53;;;-2.10;99.90;;;;;;5072153;28;20657;-51
2021/12/08 00:27:12;;;;;;;26.90;9.70;;;-2.10;99.90;;;;;;5072461;28;20168;-53
2021/12/08 00:29:37;;;;;;;35.07;12.97;;;-2.10;99.90;;;;;;5071557;28;20193;-53
2021/12/08 00:32:05;;;;;;;28.00;10.60;;;-2.20;99.90;;;;;;5054345;28;20644;-52
2021/12/08 00:34:32;;;;;;;31.17;11.30;;;-2.20;99.90;;;;;;5072411;28;20215;-56
2021/12/08 00:37:00;;;;;;;27.37;10.63;;;-2.20;99.90;;;;;;5072866;28;20282;-51
2021/12/08 00:39:26;;;;;;;27.07;9.83;;;-2.20;99.90;;;;;;5054778;28;20200;-55
2021/12/08 00:41:52;;;;;;;29.50;12.30;;;-2.20;99.90;;;;;;5054487;28;20189;-51
2021/12/08 00:44:18;;;;;;;35.13;12.57;;;-2.20;99.90;;;;;;5072421;28;20181;-52
2021/12/08 00:46:44;;;;;;;29.00;11.67;;;-2.20;99.90;;;;;;5072267;28;20241;-53
2021/12/08 00:49:11;;;;;;;29.47;10.30;;;-2.20;99.90;;;;;;5072143;28;20660;-55
2021/12/08 00:51:37;;;;;;;30.67;11.57;;;-2.30;99.90;;;;;;5072663;28;20572;-55
2021/12/08 00:54:04;;;;;;;35.10;11.97;;;-2.20;99.90;;;;;;5072288;28;20187;-56
2021/12/08 00:56:30;;;;;;;28.73;10.87;;;-2.20;99.90;;;;;;5072794;28;20184;-54
2021/12/08 00:58:56;;;;;;;36.73;14.30;;;-2.20;99.90;;;;;;5072036;28;20570;-55
2021/12/08 01:01:22;;;;;;;35.83;13.10;;;-2.20;99.90;;;;;;5072115;28;20387;-54
2021/12/08 01:03:49;;;;;;;19.27;8.43;;;-2.30;99.90;;;;;;5053994;28;20185;-53
2021/12/08 01:06:15;;;;;;;31.37;11.47;;;-2.30;99.90;;;;;;5071821;28;20280;-54
2021/12/08 01:08:41;;;;;;;33.40;11.50;;;-2.30;99.90;;;;;;5072089;28;20188;-54
2021/12/08 01:11:15;;;;;;;28.83;11.10;;;-2.30;99.90;;;;;;5071762;28;20196;-54
2021/12/08 01:13:41;;;;;;;24.70;8.63;;;-2.30;99.90;;;;;;5081899;28;20231;-56
2021/12/08 01:16:07;;;;;;;30.53;11.10;;;-2.30;99.90;;;;;;5091870;28;20176;-51
2021/12/08 01:18:34;;;;;;;29.03;11.40;;;-2.30;99.90;;;;;;5091831;28;20183;-53
2021/12/08 01:21:03;;;;;;;26.90;11.10;;;-2.30;99.90;;;;;;5092370;28;20553;-53
2021/12/08 01:23:29;;;;;;;26.00;11.30;;;-2.30;99.90;;;;;;5092593;28;20184;-54
2021/12/08 01:25:55;;;;;;;21.13;10.17;;;-2.30;99.90;;;;;;5092350;28;20179;-53
2021/12/08 01:28:22;;;;;;;22.83;9.93;;;-2.30;99.90;;;;;;5091918;28;20542;-56
2021/12/08 01:30:52;;;;;;;27.47;10.37;;;-2.30;99.90;;;;;;5092146;28;20220;-54
2021/12/08 01:33:19;;;;;;;28.07;12.83;;;-2.30;99.90;;;;;;5091872;28;20228;-53
2021/12/08 01:35:45;;;;;;;31.50;12.53;;;-2.30;99.90;;;;;;5092447;28;20188;-55
2021/12/08 01:38:12;;;;;;;38.07;14.23;;;-2.30;99.90;;;;;;5073633;28;20192;-52
2021/12/08 01:40:38;;;;;;;34.03;10.47;;;-2.40;99.90;;;;;;5091960;28;20249;-53
2021/12/08 01:43:11;;;;;;;25.37;11.10;;;-2.40;99.90;;;;;;5092116;28;20184;-60
2021/12/08 01:48:22;;;;;;;32.57;12.13;;;-2.40;99.90;;;;;;5091470;28;20199;-56
2021/12/08 01:50:55;;;;;;;24.80;10.70;;;-2.40;99.90;;;;;;5091822;28;20271;-52
2021/12/08 01:53:22;;;;;;;38.00;14.50;;;-2.50;99.90;;;;;;5073363;28;20537;-52
2021/12/08 01:55:49;;;;;;;34.07;13.47;;;-2.50;99.90;;;;;;5092049;28;20233;-52
2021/12/08 01:58:16;;;;;;;25.77;9.67;;;-2.50;99.90;;;;;;5091594;28;20187;-51
2021/12/08 02:00:53;;;;;;;35.33;12.80;;;-2.50;99.90;;;;;;5091876;28;20734;-54
2021/12/08 02:03:20;;;;;;;28.10;11.47;;;-2.50;99.90;;;;;;5091492;28;20218;-53
2021/12/08 02:05:46;;;;;;;26.93;9.97;;;-2.50;99.90;;;;;;5073809;28;20184;-54
2021/12/08 02:08:12;;;;;;;38.07;13.53;;;-2.50;99.90;;;;;;5091233;28;20186;-54
2021/12/08 02:10:38;;;;;;;25.67;9.87;;;-2.60;99.90;;;;;;5076141;28;20191;-55
2021/12/08 02:13:05;;;;;;;31.97;13.13;;;-2.60;99.90;;;;;;5095457;28;20250;-52
2021/12/08 02:15:33;;;;;;;30.40;11.33;;;-2.60;99.90;;;;;;5095534;28;20240;-52
2021/12/08 02:17:59;;;;;;;23.93;8.53;;;-2.60;99.90;;;;;;5095724;28;20210;-53
2021/12/08 02:20:28;;;;;;;28.93;10.67;;;-2.70;99.90;;;;;;5077043;28;20663;-49
2021/12/08 02:22:54;;;;;;;14.73;7.27;;;-2.70;99.90;;;;;;5077575;28;20748;-53
2021/12/08 02:25:23;;;;;;;29.27;10.27;;;-2.70;99.90;;;;;;5095420;28;20184;-52
2021/12/08 02:27:50;;;;;;;32.30;11.80;;;-2.70;99.90;;;;;;5095622;28;20179;-52
2021/12/08 02:30:25;;;;;;;22.27;10.07;;;-2.70;99.90;;;;;;5095152;28;20202;-52
2021/12/08 02:49:28;;;;;;;29.73;12.17;;;-2.80;99.90;;;;;;5012308;28;20227;-52
2021/12/08 02:51:54;;;;;;;22.57;10.17;;;-2.80;99.90;;;;;;5055824;28;20252;-56
2021/12/08 02:54:21;;;;;;;27.63;11.27;;;-2.80;99.90;;;;;;5095130;28;20176;-54
2021/12/08 02:56:48;;;;;;;29.23;10.40;;;-2.80;99.90;;;;;;5095156;28;20241;-55
2021/12/08 02:59:15;;;;;;;27.23;10.83;;;-2.80;99.90;;;;;;5094345;28;20215;-49
2021/12/08 03:01:40;;;;;;;23.17;8.67;;;-2.80;99.90;;;;;;5095042;28;20191;-54
2021/12/08 03:04:08;;;;;;;30.90;13.17;;;-2.80;99.90;;;;;;5094865;28;20537;-53
2021/12/08 03:06:35;;;;;;;26.10;11.47;;;-2.80;99.90;;;;;;5094509;28;20211;-53
2021/12/08 03:09:03;;;;;;;25.53;10.27;;;-2.80;99.90;;;;;;5094607;28;20236;-54
2021/12/08 03:11:29;;;;;;;23.50;9.20;;;-2.80;99.90;;;;;;5094443;28;20236;-50
2021/12/08 03:14:11;;;;;;;16.27;7.63;;;-2.90;99.90;;;;;;5094383;28;20242;-53
2021/12/08 03:16:40;;;;;;;23.83;10.77;;;-2.90;99.90;;;;;;5095066;28;20167;-51
2021/12/08 03:19:06;;;;;;;23.97;10.87;;;-2.90;99.90;;;;;;5094376;28;20234;-53
2021/12/08 03:21:33;;;;;;;31.60;12.30;;;-2.90;99.90;;;;;;5092862;28;20218;-52
2021/12/08 03:24:24;;;;;;;32.30;12.47;;;-2.90;99.90;;;;;;5094401;28;20196;-52
2021/12/08 03:27:04;;;;;;;27.87;11.03;;;-2.90;99.90;;;;;;5094252;28;20644;-54
2021/12/08 03:29:41;;;;;;;22.83;9.47;;;-2.90;99.90;;;;;;5094058;28;20190;-52
2021/12/08 03:32:13;;;;;;;37.13;11.23;;;-2.80;99.90;;;;;;5094357;28;20171;-49
2021/12/08 03:34:48;;;;;;;31.60;12.10;;;-2.80;99.90;;;;;;5094282;28;20612;-54
2021/12/08 03:37:14;;;;;;;30.43;12.40;;;-2.80;99.90;;;;;;5094018;28;20612;-53
2021/12/08 03:39:41;;;;;;;27.27;8.90;;;-2.80;99.90;;;;;;5094042;28;20252;-54
2021/12/08 03:42:08;;;;;;;23.40;10.73;;;-2.90;99.90;;;;;;5094315;28;20608;-56
2021/12/08 03:44:34;;;;;;;21.57;9.53;;;-2.90;99.90;;;;;;5093716;28;20203;-53
2021/12/08 03:47:04;;;;;;;23.03;8.80;;;-2.90;99.90;;;;;;5094091;28;20228;-51
2021/12/08 03:49:31;;;;;;;31.60;11.83;;;-2.90;99.90;;;;;;5093683;28;20188;-53
2021/12/08 03:52:02;;;;;;;21.37;8.37;;;-2.90;99.90;;;;;;5093574;28;20183;-54
2021/12/08 03:54:28;;;;;;;31.50;11.57;;;-2.90;99.90;;;;;;5093508;28;20271;-53
2021/12/08 03:56:55;;;;;;;16.60;9.13;;;-2.90;99.90;;;;;;5094199;28;20262;-52
2021/12/08 03:59:21;;;;;;;31.83;12.30;;;-2.90;99.90;;;;;;5093370;28;20227;-54
2021/12/08 04:01:47;;;;;;;22.53;8.57;;;-2.90;99.90;;;;;;5093631;28;20203;-51
2021/12/08 04:04:13;;;;;;;29.63;12.00;;;-2.90;99.90;;;;;;5093183;28;20223;-61
2021/12/08 04:06:46;;;;;;;32.23;12.93;;;-3.00;99.90;;;;;;5093488;28;20183;-54
2021/12/08 04:09:18;;;;;;;29.10;11.83;;;-3.00;99.90;;;;;;5093313;28;20234;-49
2021/12/08 04:11:45;;;;;;;26.30;10.27;;;-2.90;99.90;;;;;;5093477;28;20693;-54
2021/12/08 04:14:15;;;;;;;28.53;11.47;;;-3.00;99.90;;;;;;5093027;28;20365;-54
2021/12/08 04:16:57;;;;;;;29.93;11.53;;;-3.00;99.90;;;;;;5093313;28;20336;-53
2021/12/08 04:19:23;;;;;;;29.43;10.50;;;-3.00;99.90;;;;;;5092938;28;20643;-56
2021/12/08 04:21:52;;;;;;;26.30;10.80;;;-3.00;99.90;;;;;;5093312;28;20192;-51
2021/12/08 04:24:18;;;;;;;26.87;9.93;;;-3.10;99.90;;;;;;5092988;28;20190;-53
2021/12/08 04:26:55;;;;;;;31.40;11.83;;;-3.10;99.90;;;;;;5093062;28;20257;-53
2021/12/08 04:29:24;;;;;;;29.30;11.13;;;-3.10;99.90;;;;;;5092291;28;20567;-53
2021/12/08 04:31:51;;;;;;;24.90;10.37;;;-3.10;99.90;;;;;;5092716;28;20175;-53
2021/12/08 04:34:24;;;;;;;24.53;9.17;;;-3.10;99.90;;;;;;5091990;28;20211;-49
2021/12/08 04:36:52;;;;;;;20.13;8.30;;;-3.10;99.90;;;;;;5092322;28;20170;-54
2021/12/08 04:39:30;;;;;;;30.60;12.87;;;-3.10;99.90;;;;;;5092084;28;20209;-54
2021/12/08 04:42:06;;;;;;;21.83;8.50;;;-3.00;99.90;;;;;;5092531;28;20229;-54
2021/12/08 04:44:57;;;;;;;24.33;8.70;;;-3.00;99.90;;;;;;5092381;28;20183;-54
2021/12/08 04:47:33;;;;;;;13.17;6.20;;;-3.00;99.90;;;;;;5091531;28;20628;-54
2021/12/08 04:50:38;;;;;;;26.27;10.67;;;-3.00;99.90;;;;;;5092303;28;20313;-52
2021/12/08 05:09:21;;;;;;;35.07;12.43;;;-3.10;99.90;;;;;;5092123;28;20229;-53
2021/12/08 05:11:58;;;;;;;20.43;8.47;;;-3.20;99.90;;;;;;5091824;28;20228;-52
2021/12/08 05:14:29;;;;;;;21.87;9.60;;;-3.20;99.90;;;;;;5091256;28;20219;-54
2021/12/08 05:17:03;;;;;;;31.43;11.47;;;-3.30;99.90;;;;;;5092090;28;20675;-52
2021/12/08 05:19:32;;;;;;;33.10;11.47;;;-3.30;99.90;;;;;;5091405;28;20204;-52
2021/12/08 05:22:13;;;;;;;35.30;12.80;;;-3.30;99.90;;;;;;5091680;28;20179;-53
2021/12/08 05:24:43;;;;;;;27.60;10.77;;;-3.30;99.90;;;;;;5090802;28;20170;-51
2021/12/08 05:27:13;;;;;;;30.50;10.23;;;-3.30;99.90;;;;;;5090900;28;20182;-52
2021/12/08 05:29:52;;;;;;;33.37;13.87;;;-3.30;99.90;;;;;;5090681;28;20203;-52
2021/12/08 05:32:19;;;;;;;24.37;9.60;;;-3.30;99.90;;;;;;5091007;28;20171;-63
2021/12/08 05:34:46;;;;;;;21.57;9.13;;;-3.30;99.90;;;;;;5090955;28;20171;-55
2021/12/08 05:37:14;;;;;;;23.67;9.77;;;-3.30;99.90;;;;;;5091352;28;20234;-55
2021/12/08 05:39:40;;;;;;;20.17;8.27;;;-3.30;99.90;;;;;;5090475;28;20202;-53
2021/12/08 05:42:11;;;;;;;27.13;11.10;;;-3.30;99.90;;;;;;5090824;28;20190;-56
2021/12/08 05:44:38;;;;;;;32.30;11.70;;;-3.30;99.90;;;;;;5071417;28;20304;-54
2021/12/08 05:47:07;;;;;;;30.53;12.00;;;-3.30;99.90;;;;;;5090151;28;20191;-52
2021/12/08 05:49:33;;;;;;;27.03;11.33;;;-3.30;99.90;;;;;;5090441;28;20182;-53
2021/12/08 05:51:59;;;;;;;31.00;11.43;;;-3.30;99.90;;;;;;5088587;28;20545;-55
2021/12/08 05:54:33;;;;;;;27.93;11.97;;;-3.30;99.90;;;;;;5069695;28;20195;-57
2021/12/08 05:57:16;;;;;;;32.03;12.90;;;-3.30;99.90;;;;;;5085893;28;20166;-54
2021/12/08 05:59:43;;;;;;;33.73;14.40;;;-3.30;99.90;;;;;;5088370;28;20206;-55
2021/12/08 06:02:23;;;;;;;21.80;8.73;;;-3.30;99.90;;;;;;5070914;28;20199;-54
2021/12/08 06:04:50;;;;;;;32.00;12.87;;;-3.30;99.90;;;;;;5088814;28;20179;-55
2021/12/08 06:07:21;;;;;;;22.43;8.70;;;-3.30;99.90;;;;;;5088879;28;20520;-56
2021/12/08 06:09:50;;;;;;;28.20;10.30;;;-3.30;99.90;;;;;;5088159;28;20295;-53
2021/12/08 06:12:16;;;;;;;34.77;14.33;;;-3.30;99.90;;;;;;5088125;28;20198;-53
2021/12/08 06:14:42;;;;;;;27.13;11.80;;;-3.30;99.90;;;;;;5088174;28;20237;-54
2021/12/08 06:17:13;;;;;;;32.67;12.40;;;-3.30;99.90;;;;;;5088904;28;20183;-54
2021/12/08 06:19:41;;;;;;;25.73;10.53;;;-3.30;99.90;;;;;;5078174;28;20223;-57
2021/12/08 06:22:09;;;;;;;19.67;8.87;;;-3.30;99.90;;;;;;5068428;28;20195;-55
2021/12/08 06:24:35;;;;;;;30.87;11.87;;;-3.30;99.90;;;;;;5067842;28;20647;-53
2021/12/08 06:27:01;;;;;;;26.57;10.73;;;-3.30;99.90;;;;;;5068218;28;20187;-58
2021/12/08 06:29:27;;;;;;;32.00;12.80;;;-3.30;99.90;;;;;;5068117;28;20240;-56
2021/12/08 06:31:55;;;;;;;20.73;8.60;;;-3.30;99.90;;;;;;5050046;28;20830;-57
2021/12/08 06:34:23;;;;;;;25.27;9.90;;;-3.30;99.90;;;;;;5067634;28;20587;-69
2021/12/08 06:37:00;;;;;;;31.47;12.43;;;-3.30;99.90;;;;;;5049765;28;20241;-56
2021/12/08 06:39:33;;;;;;;31.93;12.60;;;-3.30;99.90;;;;;;5067443;28;20208;-57
2021/12/08 06:42:05;;;;;;;25.87;8.73;;;-3.30;99.90;;;;;;5068921;28;20184;-52
2021/12/08 06:44:39;;;;;;;25.97;9.53;;;-3.30;99.90;;;;;;5068010;28;20179;-56
2021/12/08 06:47:11;;;;;;;32.33;11.50;;;-3.40;99.90;;;;;;5067942;28;20178;-50
2021/12/08 06:49:37;;;;;;;26.03;9.77;;;-3.30;99.90;;;;;;5075885;28;20679;-61
2021/12/08 06:52:12;;;;;;;30.73;12.43;;;-3.30;99.90;;;;;;5071490;28;20219;-63
2021/12/08 06:54:43;;;;;;;21.87;9.33;;;-3.20;99.90;;;;;;5089973;28;20554;-51
2021/12/08 06:57:20;;;;;;;28.97;11.07;;;-3.30;99.90;;;;;;5093159;28;20229;-54
2021/12/08 07:00:05;;;;;;;30.00;11.37;;;-3.30;99.90;;;;;;5092983;28;20260;-50
2021/12/08 07:05:27;;;;;;;27.93;10.27;;;-3.30;99.90;;;;;;5077318;28;20177;-54
2021/12/08 07:07:58;;;;;;;28.80;11.00;;;-3.30;99.90;;;;;;5093902;28;20166;-53
2021/12/08 07:10:32;;;;;;;32.80;13.53;;;-3.30;99.90;;;;;;5093349;28;20202;-73
2021/12/08 07:13:03;;;;;;;29.63;11.83;;;-3.20;99.90;;;;;;5093467;28;20222;-55
2021/12/08 07:15:38;;;;;;;27.67;12.17;;;-3.20;99.90;;;;;;5092497;28;20183;-56
2021/12/08 07:18:19;;;;;;;29.33;10.27;;;-3.10;99.90;;;;;;5093294;28;20228;-57
2021/12/08 07:20:54;;;;;;;30.67;11.17;;;-3.10;99.90;;;;;;5092684;28;20215;-60
2021/12/08 07:23:27;;;;;;;31.40;13.60;;;-3.10;99.90;;;;;;5087960;28;20565;-52
2021/12/08 07:25:57;;;;;;;23.83;9.93;;;-3.10;99.90;;;;;;5092948;28;20175;-57
2021/12/08 07:28:24;;;;;;;33.33;12.40;;;-3.10;99.90;;;;;;5093340;28;20232;-54
2021/12/08 07:30:55;;;;;;;27.77;11.33;;;-3.10;99.90;;;;;;5092965;28;20180;-56
2021/12/08 07:33:21;;;;;;;28.27;9.67;;;-3.10;99.90;;;;;;5092954;28;20208;-53
2021/12/08 07:35:51;;;;;;;24.63;10.13;;;-3.10;99.90;;;;;;5092691;28;20172;-56
2021/12/08 07:38:22;;;;;;;29.10;12.27;;;-3.20;99.90;;;;;;5093242;28;20176;-55
2021/12/08 07:41:18;;;;;;;25.47;11.27;;;-3.20;99.90;;;;;;5092292;28;20688;-59
2021/12/08 07:43:48;;;;;;;32.47;12.30;;;-3.20;99.90;;;;;;5072552;28;20183;-55
2021/12/08 07:46:22;;;;;;;25.53;10.00;;;-3.10;99.90;;;;;;5093456;28;20168;-63
2021/12/08 07:49:13;;;;;;;28.07;11.57;;;-3.10;99.90;;;;;;5073631;28;20168;-53
2021/12/08 07:51:43;;;;;;;28.43;10.13;;;-3.10;99.90;;;;;;5074271;28;20605;-53
2021/12/08 07:54:10;;;;;;;34.00;13.40;;;-3.00;99.90;;;;;;5092526;28;20176;-55
2021/12/08 07:56:40;;;;;;;31.93;12.33;;;-3.00;99.90;;;;;;5092544;28;20207;-55
2021/12/08 07:59:09;;;;;;;31.27;13.47;;;-2.90;99.90;;;;;;5092435;28;20201;-59
2021/12/08 08:01:40;;;;;;;35.07;13.47;;;-2.80;99.90;;;;;;5092706;28;20184;-57
2021/12/08 08:04:10;;;;;;;32.83;13.17;;;-2.80;99.90;;;;;;5092771;28;20183;-64
2021/12/08 08:06:41;;;;;;;29.83;12.50;;;-2.70;99.90;;;;;;5092823;28;20172;-56
2021/12/08 08:09:14;;;;;;;31.17;12.80;;;-2.50;99.90;;;;;;5092192;28;20196;-60
2021/12/08 08:11:43;;;;;;;36.27;13.30;;;-2.40;99.90;;;;;;5092075;28;20278;-60
2021/12/08 08:14:11;;;;;;;26.80;11.37;;;-2.20;99.90;;;;;;5092428;28;20264;-56
2021/12/08 08:16:39;;;;;;;25.30;10.20;;;-2.10;99.90;;;;;;5092172;28;20183;-53
2021/12/08 08:19:11;;;;;;;29.73;10.70;;;-2.20;99.90;;;;;;5073379;28;20632;-55
2021/12/08 08:21:47;;;;;;;32.47;13.63;;;-2.30;99.90;;;;;;5092016;28;20643;-48
2021/12/08 08:24:14;;;;;;;31.07;11.30;;;-2.30;99.90;;;;;;5091698;28;20225;-49
2021/12/08 08:26:42;;;;;;;32.07;12.70;;;-2.50;99.90;;;;;;5091216;28;20271;-48
2021/12/08 08:29:09;;;;;;;33.10;13.53;;;-2.40;99.90;;;;;;5073602;28;20191;-47
2021/12/08 08:31:53;;;;;;;32.67;12.33;;;-2.40;99.90;;;;;;5091098;28;20669;-50
2021/12/08 08:34:19;;;;;;;26.47;10.17;;;-2.50;99.90;;;;;;5092077;28;20335;-53
2021/12/08 08:36:47;;;;;;;31.70;13.17;;;-2.50;99.90;;;;;;5091998;28;20184;-46
2021/12/08 08:39:35;;;;;;;33.80;12.60;;;-2.50;99.90;;;;;;5091208;28;20628;-51
2021/12/08 08:42:05;;;;;;;28.57;11.37;;;-2.50;99.90;;;;;;5073891;28;20225;-54
2021/12/08 08:44:47;;;;;;;15.13;6.67;;;-2.50;99.90;;;;;;5091759;28;20177;-53
2021/12/08 08:47:22;;;;;;;26.37;11.23;;;-2.50;99.90;;;;;;5091915;28;20160;-60
2021/12/08 08:49:50;;;;;;;31.63;12.63;;;-2.40;99.90;;;;;;5090228;28;20195;-56
2021/12/08 08:52:25;;;;;;;31.50;10.03;;;-2.50;99.90;;;;;;5073230;28;20196;-57
2021/12/08 08:54:53;;;;;;;43.10;14.40;;;-2.50;99.90;;;;;;5091629;28;20174;-57
2021/12/08 08:57:28;;;;;;;33.93;13.53;;;-2.40;99.90;;;;;;5091537;28;20220;-58
2021/12/08 09:00:05;;;;;;;31.60;13.27;;;-2.30;99.90;;;;;;5091116;28;20276;-56
2021/12/08 09:02:37;;;;;;;33.33;13.87;;;-2.10;99.90;;;;;;5091493;28;20176;-56
2021/12/08 09:05:19;;;;;;;33.97;11.80;;;-2.00;99.90;;;;;;5091162;28;20766;-57
2021/12/08 09:07:48;;;;;;;25.57;10.90;;;-1.90;99.90;;;;;;5091797;28;20623;-65
2021/12/08 09:10:32;;;;;;;30.07;11.27;;;-1.90;99.90;;;;;;5091453;28;20192;-67
2021/12/08 09:13:04;;;;;;;21.57;8.47;;;-2.00;99.90;;;;;;5090529;28;20318;-55
2021/12/08 09:15:48;;;;;;;21.83;9.83;;;-1.90;99.90;;;;;;5073455;28;20507;-56
2021/12/08 09:18:28;;;;;;;24.20;11.03;;;-2.00;99.90;;;;;;5072726;28;20188;-56
2021/12/08 09:21:34;;;;;;;25.67;11.50;;;-2.10;99.90;;;;;;5089963;28;20307;-60
2021/12/08 09:24:09;;;;;;;29.50;10.53;;;-1.90;99.90;;;;;;5083004;28;20196;-57
2021/12/08 09:26:42;;;;;;;36.03;12.00;;;-1.90;99.90;;;;;;5056554;28;20176;-66
2021/12/08 09:29:15;;;;;;;30.53;12.47;;;-1.90;99.90;;;;;;5090784;28;20161;-59
2021/12/08 09:31:56;;;;;;;51.23;12.77;;;-1.80;99.90;;;;;;5090680;28;20165;-50
2021/12/08 09:34:36;;;;;;;23.00;9.93;;;-1.90;99.90;;;;;;5084586;28;20184;-56
2021/12/08 09:37:11;;;;;;;30.77;11.70;;;-1.90;99.90;;;;;;5091311;28;20195;-56
2021/12/08 09:39:45;;;;;;;27.20;11.97;;;-2.00;99.90;;;;;;5090930;28;20776;-60
2021/12/08 09:42:20;;;;;;;29.27;10.13;;;-2.00;99.90;;;;;;5091066;28;20183;-57
2021/12/08 09:44:54;;;;;;;26.00;9.93;;;-2.20;99.90;;;;;;5090510;28;20172;-57
2021/12/08 09:47:20;;;;;;;25.90;8.97;;;-2.30;99.90;;;;;;5090663;28;20161;-59
2021/12/08 09:49:49;;;;;;;24.40;8.30;;;-2.30;99.90;;;;;;5090365;28;20525;-59
2021/12/08 09:52:18;;;;;;;26.37;10.43;;;-2.20;99.90;;;;;;5091097;28;20266;-55
2021/12/08 09:54:44;;;;;;;26.37;10.63;;;-2.30;99.90;;;;;;5090510;28;20192;-58
2021/12/08 09:57:13;;;;;;;36.77;10.13;;;-2.40;99.90;;;;;;5091053;28;20203;-62
2021/12/08 09:59:46;;;;;;;25.27;9.77;;;-2.40;99.90;;;;;;5089938;28;20200;-55
2021/12/08 10:02:17;;;;;;;24.43;10.10;;;-2.40;99.90;;;;;;5090359;28;20658;-66
2021/12/08 10:04:43;;;;;;;26.33;10.70;;;-2.30;99.90;;;;;;5072768;28;20168;-56
2021/12/08 10:07:10;;;;;;;26.13;9.23;;;-2.30;99.90;;;;;;5091075;28;20179;-54
2021/12/08 10:09:36;;;;;;;27.87;11.70;;;-2.20;99.90;;;;;;5090889;28;20198;-59
2021/12/08 10:12:03;;;;;;;30.10;12.77;;;-2.20;99.90;;;;;;5090096;28;20179;-57
2021/12/08 10:14:29;;;;;;;29.30;11.53;;;-2.10;99.90;;;;;;5071747;28;20723;-60
2021/12/08 10:16:56;;;;;;;27.03;11.57;;;-1.90;99.90;;;;;;5071956;28;20207;-60
2021/12/08 10:19:23;;;;;;;32.10;13.07;;;-1.70;99.90;;;;;;5089844;28;20221;-59
2021/12/08 10:21:49;;;;;;;21.10;9.43;;;-1.50;99.90;;;;;;5089776;28;20252;-56
2021/12/08 10:24:18;;;;;;;25.70;11.37;;;-1.50;99.90;;;;;;5090693;28;20177;-59
2021/12/08 10:26:45;;;;;;;22.40;9.50;;;-1.60;99.90;;;;;;5090824;28;20173;-54
2021/12/08 10:29:11;;;;;;;21.70;10.83;;;-1.70;99.90;;;;;;5090300;28;20189;-63
2021/12/08 10:31:47;;;;;;;43.33;12.67;;;-1.60;99.90;;;;;;5092753;28;20540;-62
2021/12/08 10:36:52;;;;;;;24.97;10.80;;;-1.40;99.90;;;;;;5093989;28;20474;-60
2021/12/08 10:39:29;;;;;;;30.70;9.73;;;-1.60;99.90;;;;;;5094024;28;20204;-54
2021/12/08 10:41:57;;;;;;;29.27;12.40;;;-1.50;99.90;;;;;;5093720;28;20211;-53
2021/12/08 10:44:31;;;;;;;24.33;10.93;;;-1.50;99.90;;;;;;5094249;28;20181;-58
2021/12/08 10:46:58;;;;;;;37.30;11.40;;;-1.60;99.90;;;;;;5093737;28;20710;-57
2021/12/08 10:54:44;;;;;;;25.17;9.57;;;-1.60;99.90;;;;;;5078501;28;20167;-62
2021/12/08 10:57:27;;;;;;;30.37;11.00;;;-1.60;99.90;;;;;;5094508;28;20175;-61
2021/12/08 10:59:57;;;;;;;23.30;7.90;;;-1.70;99.90;;;;;;5093318;28;20277;-58
2021/12/08 11:02:40;;;;;;;39.13;12.70;;;-1.80;99.90;;;;;;5093819;28;20177;-58
2021/12/08 11:05:28;;;;;;;24.57;10.13;;;-1.80;99.90;;;;;;5093984;28;20172;-57
2021/12/08 11:08:15;;;;;;;27.87;10.80;;;-1.80;99.90;;;;;;5092815;28;20196;-58
2021/12/08 11:10:53;;;;;;;27.80;10.77;;;-1.80;99.90;;;;;;5075300;28;20195;-54
2021/12/08 11:13:28;;;;;;;31.43;11.10;;;-1.90;99.90;;;;;;5077718;28;20657;-54
2021/12/08 11:16:14;;;;;;;30.37;12.63;;;-2.10;99.90;;;;;;5092447;28;20214;-59
2021/12/08 11:18:46;;;;;;;28.00;10.73;;;-2.10;99.90;;;;;;5092706;28;20175;-60
2021/12/08 11:21:20;;;;;;;24.27;10.53;;;-2.00;99.90;;;;;;5093370;28;20215;-57
2021/12/08 11:23:50;;;;;;;28.20;10.73;;;-2.10;99.90;;;;;;5092356;28;20635;-52
2021/12/08 11:26:23;;;;;;;20.27;8.87;;;-2.20;99.90;;;;;;5093139;28;20195;-57
2021/12/08 11:29:00;;;;;;;23.73;10.60;;;-2.30;99.90;;;;;;5092984;28;20173;-55
2021/12/08 11:31:52;;;;;;;28.67;12.00;;;-2.40;99.90;;;;;;5093577;28;20565;-57
2021/12/08 11:34:21;;;;;;;33.87;13.47;;;-2.40;99.90;;;;;;5082359;28;20655;-62
2021/12/08 11:36:53;;;;;;;33.50;11.00;;;-2.30;99.90;;;;;;5092948;28;20214;-58
2021/12/08 11:39:27;;;;;;;31.03;11.50;;;-2.30;99.90;;;;;;5093146;28;20639;-55
2021/12/08 11:41:58;;;;;;;33.63;12.97;;;-2.30;99.90;;;;;;5092641;28;20192;-55
2021/12/08 11:44:30;;;;;;;23.47;10.87;;;-2.30;99.90;;;;;;5093149;28;20199;-56
2021/12/08 11:47:00;;;;;;;22.77;9.60;;;-2.50;99.90;;;;;;5092484;28;20656;-54
2021/12/08 11:49:26;;;;;;;26.67;10.87;;;-2.50;99.90;;;;;;5085727;28;20475;-53
2021/12/08 11:52:10;;;;;;;28.03;9.50;;;-2.50;99.90;;;;;;5072485;28;20577;-59
2021/12/08 11:54:41;;;;;;;25.23;11.07;;;-2.50;99.90;;;;;;5072363;28;20176;-56
2021/12/08 11:57:22;;;;;;;23.17;8.97;;;-2.50;99.90;;;;;;5072692;28;20272;-56
2021/12/08 11:59:49;;;;;;;31.60;11.67;;;-2.50;99.90;;;;;;5078797;28;20606;-56
2021/12/08 12:02:18;;;;;;;37.87;13.47;;;-2.50;99.90;;;;;;5091601;28;20184;-59
2021/12/08 12:04:44;;;;;;;22.43;9.83;;;-2.50;99.90;;;;;;5092283;28;20226;-63
2021/12/08 12:07:12;;;;;;;27.17;10.83;;;-2.40;99.90;;;;;;5074011;28;20282;-60
2021/12/08 12:09:39;;;;;;;22.47;9.50;;;-2.40;99.90;;;;;;5092492;28;20202;-57
2021/12/08 12:12:05;;;;;;;37.70;14.03;;;-2.40;99.90;;;;;;5092301;28;20192;-60
2021/12/08 12:14:31;;;;;;;32.83;12.70;;;-2.50;99.90;;;;;;5092064;28;20232;-59
2021/12/08 12:16:57;;;;;;;34.20;11.77;;;-2.50;99.90;;;;;;5091868;28;20198;-60
2021/12/08 12:19:26;;;;;;;23.43;8.40;;;-2.50;99.90;;;;;;5091375;28;20207;-56
2021/12/08 12:22:10;;;;;;;28.37;8.43;;;-2.50;99.90;;;;;;5091675;28;20576;-60
2021/12/08 12:24:56;;;;;;;19.13;7.83;;;-2.50;99.90;;;;;;5092168;28;20172;-61
2021/12/08 12:27:47;;;;;;;37.87;12.37;;;-2.60;99.90;;;;;;5092063;28;20182;-58
2021/12/08 12:30:26;;;;;;;34.00;13.13;;;-2.50;99.90;;;;;;5091970;28;20260;-55
2021/12/08 12:32:54;;;;;;;31.97;11.73;;;-2.50;99.90;;;;;;5090877;28;20171;-56
2021/12/08 12:35:29;;;;;;;32.23;11.83;;;-2.50;99.90;;;;;;5074708;28;20184;-54
2021/12/08 12:38:12;;;;;;;28.37;11.70;;;-2.50;99.90;;;;;;5091586;28;20225;-54
2021/12/08 12:40:51;;;;;;;36.97;13.87;;;-2.50;99.90;;;;;;5073964;28;20314;-51
2021/12/08 12:43:30;;;;;;;27.83;11.13;;;-2.50;99.90;;;;;;5092105;28;20470;-56
2021/12/08 12:46:12;;;;;;;29.47;10.70;;;-2.50;99.90;;;;;;5091331;28;20244;-60
2021/12/08 12:48:39;;;;;;;29.07;12.57;;;-2.50;99.90;;;;;;5091538;28;20176;-59
2021/12/08 12:51:07;;;;;;;31.23;12.73;;;-2.60;99.90;;;;;;5091146;28;20282;-54
2021/12/08 12:53:43;;;;;;;37.10;13.93;;;-2.60;99.90;;;;;;5091346;28;20183;-54
2021/12/08 12:56:12;;;;;;;33.20;13.50;;;-2.70;99.90;;;;;;5092204;28;20171;-63
2021/12/08 12:58:58;;;;;;;39.53;13.93;;;-2.60;99.90;;;;;;5092105;28;20215;-55
2021/12/08 13:01:27;;;;;;;38.23;14.37;;;-2.60;99.90;;;;;;5091180;28;20211;-57
2021/12/08 13:03:56;;;;;;;19.70;9.30;;;-2.60;99.90;;;;;;5091454;28;20539;-60
2021/12/08 13:06:42;;;;;;;34.77;14.10;;;-2.60;99.90;;;;;;5092296;28;21065;-53
2021/12/08 13:09:29;;;;;;;26.47;10.90;;;-2.60;99.90;;;;;;5091520;28;20164;-56
2021/12/08 13:12:09;;;;;;;40.17;13.77;;;-2.60;99.90;;;;;;5072746;28;20186;-67
2021/12/08 13:14:35;;;;;;;29.30;11.13;;;-2.60;99.90;;;;;;5092038;28;20250;-48
2021/12/08 13:17:24;;;;;;;25.63;11.33;;;-2.60;99.90;;;;;;5090877;28;20209;-56
2021/12/08 13:19:58;;;;;;;26.07;10.83;;;-2.60;99.90;;;;;;5090519;28;20702;-56
2021/12/08 13:22:50;;;;;;;34.15;13.88;;;-2.60;99.90;;;;;;5091467;28;20430;-54
2021/12/08 13:25:38;;;;;;;31.63;12.63;;;-2.60;99.90;;;;;;5091374;28;20182;-53
2021/12/08 13:28:18;;;;;;;30.17;12.57;;;-2.60;99.90;;;;;;5090875;28;20176;-54
2021/12/08 13:30:57;;;;;;;34.43;13.80;;;-2.50;99.90;;;;;;5091179;28;20168;-60
2021/12/08 13:33:26;;;;;;;38.73;14.07;;;-2.40;99.90;;;;;;5091285;28;20183;-58
2021/12/08 13:35:55;;;;;;;33.90;12.20;;;-2.30;99.90;;;;;;5091012;28;20191;-55
2021/12/08 13:38:22;;;;;;;35.50;12.37;;;-2.40;99.90;;;;;;5090707;28;20288;-55
2021/12/08 13:40:53;;;;;;;31.23;12.93;;;-2.40;99.90;;;;;;5056013;28;20234;-57